createdAt,value
2023-03-06T00:00:49.770Z,3.81
2023-03-06T00:03:16.955Z,3.83
2023-03-06T00:05:44.046Z,3.98
2023-03-06T00:08:11.100Z,3.99
2023-03-06T00:10:38.311Z,3.98
2023-03-06T00:13:10.947Z,3.94
2023-03-06T00:15:37.778Z,3.92
2023-03-06T00:18:05.729Z,3.94
2023-03-06T00:20:33.931Z,3.91
2023-03-06T00:23:00.708Z,3.91
2023-03-06T00:25:27.686Z,3.84
2023-03-06T00:27:54.459Z,3.92
2023-03-06T00:30:25.416Z,3.86
2023-03-06T00:32:53.289Z,3.88
2023-03-06T00:35:20.571Z,3.86
2023-03-06T00:37:47.583Z,3.86
2023-03-06T00:40:17.121Z,3.84
2023-03-06T00:42:44.594Z,3.69
2023-03-06T00:45:13.371Z,3.76
2023-03-06T00:47:40.721Z,3.80
2023-03-06T00:50:08.595Z,3.82
2023-03-06T00:52:36.369Z,3.82
2023-03-06T00:55:03.837Z,3.79
2023-03-06T00:57:30.576Z,3.78
2023-03-06T00:59:57.537Z,3.81
2023-03-06T01:02:24.510Z,3.69
2023-03-06T01:04:54.580Z,3.76
2023-03-06T01:07:21.409Z,3.76
2023-03-06T01:09:48.176Z,3.75
2023-03-06T01:12:15.344Z,3.76
2023-03-06T01:14:42.201Z,3.63
2023-03-06T01:17:10.013Z,3.70
2023-03-06T01:19:37.076Z,3.71
2023-03-06T01:22:04.183Z,3.72
2023-03-06T01:24:31.646Z,3.70
2023-03-06T01:26:58.429Z,3.71
2023-03-06T01:29:26.587Z,3.61
2023-03-06T01:31:53.530Z,3.72
2023-03-06T01:34:20.881Z,3.73
2023-03-06T01:36:47.660Z,3.77
2023-03-06T01:39:14.460Z,3.63
2023-03-06T01:41:41.370Z,3.73
2023-03-06T01:44:11.006Z,3.78
2023-03-06T01:46:42.953Z,3.64
2023-03-06T01:49:09.658Z,3.75
2023-03-06T01:51:48.744Z,3.77
2023-03-06T01:54:21.686Z,3.74
2023-03-06T01:56:52.766Z,3.76
2023-03-06T01:59:21.898Z,3.74
2023-03-06T02:01:49.805Z,3.68
2023-03-06T02:04:17.909Z,3.78
2023-03-06T02:06:45.011Z,3.79
2023-03-06T02:09:13.650Z,3.78
2023-03-06T02:11:44.150Z,3.83
2023-03-06T02:14:14.260Z,3.83
2023-03-06T02:16:42.120Z,3.70
2023-03-06T02:19:29.463Z,3.84
2023-03-06T02:21:56.507Z,3.85
2023-03-06T02:24:44.904Z,3.84
2023-03-06T02:27:14.514Z,3.75
2023-03-06T02:29:41.971Z,3.84
2023-03-06T02:32:09.722Z,3.83
2023-03-06T02:34:39.322Z,3.82
2023-03-06T02:37:11.117Z,3.82
2023-03-06T02:39:46.547Z,3.79
2023-03-06T02:42:22.138Z,3.72
2023-03-06T02:44:49.753Z,3.64
2023-03-06T02:47:16.517Z,3.71
2023-03-06T02:49:43.327Z,3.73
2023-03-06T02:52:10.403Z,3.70
2023-03-06T02:54:39.265Z,3.70
2023-03-06T02:57:06.922Z,3.71
2023-03-06T02:59:34.303Z,3.72
2023-03-06T03:02:02.410Z,3.64
2023-03-06T03:04:29.170Z,3.73
2023-03-06T03:06:56.961Z,3.67
2023-03-06T03:09:25.177Z,3.70
2023-03-06T03:11:52.228Z,3.72
2023-03-06T03:14:19.372Z,3.71
2023-03-06T03:16:47.538Z,3.71
2023-03-06T03:19:14.672Z,3.68
2023-03-06T03:21:42.662Z,3.64
2023-03-06T03:24:09.566Z,3.62
2023-03-06T03:26:36.714Z,3.58
2023-03-06T03:29:09.824Z,3.56
2023-03-06T03:31:36.835Z,3.54
2023-03-06T03:34:04.305Z,3.55
2023-03-06T03:36:34.672Z,3.44
2023-03-06T03:39:03.557Z,3.57
2023-03-06T03:41:30.618Z,3.57
2023-03-06T03:43:57.462Z,3.59
2023-03-06T03:46:24.708Z,3.58
2023-03-06T03:48:52.885Z,3.59
2023-03-06T03:51:20.073Z,3.62
2023-03-06T03:53:51.030Z,3.61
2023-03-06T03:56:21.257Z,3.49
2023-03-06T03:58:57.849Z,3.58
2023-03-06T04:01:27.875Z,3.57
2023-03-06T04:03:55.011Z,3.45
2023-03-06T04:06:21.771Z,3.60
2023-03-06T04:08:48.551Z,3.47
2023-03-06T04:11:15.912Z,3.49
2023-03-06T04:13:43.302Z,3.55
2023-03-06T04:16:10.272Z,3.56
2023-03-06T04:18:38.659Z,3.61
2023-03-06T04:21:06.377Z,3.59
2023-03-06T04:23:33.644Z,3.56
2023-03-06T04:26:00.476Z,3.55
2023-03-06T04:28:27.777Z,3.56
2023-03-06T04:30:54.569Z,3.43
2023-03-06T04:33:21.666Z,3.55
2023-03-06T04:35:48.799Z,3.56
2023-03-06T04:38:21.265Z,3.55
2023-03-06T04:40:49.774Z,3.52
2023-03-06T04:43:17.100Z,3.49
2023-03-06T04:45:44.088Z,3.47
2023-03-06T04:48:14.466Z,3.54
2023-03-06T04:50:41.851Z,3.55
2023-03-06T04:53:09.629Z,3.58
2023-03-06T04:55:36.553Z,3.58
2023-03-06T04:58:03.362Z,3.45
2023-03-06T05:00:33.388Z,3.57
2023-03-06T05:03:00.936Z,3.61
2023-03-06T05:05:28.360Z,3.59
2023-03-06T05:07:55.814Z,3.56
2023-03-06T05:10:23.099Z,3.55
2023-03-06T05:12:49.838Z,3.58
2023-03-06T05:15:17.487Z,3.50
2023-03-06T05:17:44.575Z,3.55
2023-03-06T05:20:12.784Z,3.58
2023-03-06T05:22:39.670Z,3.49
2023-03-06T05:25:06.916Z,3.37
2023-03-06T05:27:33.960Z,3.57
2023-03-06T05:30:00.971Z,3.60
2023-03-06T05:32:28.476Z,3.62
2023-03-06T05:34:55.723Z,3.55
2023-03-06T05:37:25.730Z,3.60
2023-03-06T05:39:53.028Z,3.60
2023-03-06T05:42:19.917Z,3.63
2023-03-06T05:44:46.661Z,3.61
2023-03-06T05:47:13.649Z,3.63
2023-03-06T05:49:40.543Z,3.63
2023-03-06T05:52:08.917Z,3.59
2023-03-06T05:54:37.135Z,3.49
2023-03-06T05:57:05.165Z,3.60
2023-03-06T05:59:33.097Z,3.60
2023-03-06T06:02:01.409Z,3.49
2023-03-06T06:04:28.517Z,3.60
2023-03-06T06:06:58.175Z,3.51
2023-03-06T06:09:25.942Z,3.68
2023-03-06T06:11:59.946Z,3.69
2023-03-06T06:14:26.952Z,3.69
2023-03-06T06:16:53.896Z,3.70
2023-03-06T06:19:21.774Z,3.58
2023-03-06T06:21:53.986Z,3.72
2023-03-06T06:24:23.103Z,3.66
2023-03-06T06:26:51.864Z,3.66
2023-03-06T06:29:19.123Z,3.78
2023-03-06T06:31:46.198Z,3.78
2023-03-06T06:34:14.014Z,3.84
2023-03-06T06:36:41.802Z,3.86
2023-03-06T06:39:09.854Z,3.87
2023-03-06T06:41:55.221Z,3.76
2023-03-06T06:44:23.719Z,3.93
2023-03-06T06:49:38.125Z,3.99
2023-03-06T06:52:06.219Z,4.03
2023-03-06T06:54:34.426Z,4.05
2023-03-06T06:57:01.129Z,4.13
2023-03-06T06:59:27.974Z,4.15
2023-03-06T07:01:54.701Z,4.20
2023-03-06T07:04:21.727Z,4.23
2023-03-06T07:06:48.602Z,4.10
2023-03-06T07:09:15.376Z,4.23
2023-03-06T07:11:42.399Z,4.28
2023-03-06T07:14:09.176Z,4.31
2023-03-06T07:16:36.024Z,4.35
2023-03-06T07:19:02.812Z,4.28
2023-03-06T07:21:29.487Z,4.34
2023-03-06T07:23:57.589Z,4.39
2023-03-06T07:26:26.232Z,4.34
2023-03-06T07:28:53.819Z,4.37
2023-03-06T07:31:23.264Z,4.43
2023-03-06T07:33:50.858Z,4.44
2023-03-06T07:36:18.443Z,4.43
2023-03-06T07:38:45.348Z,4.45
2023-03-06T07:41:13.838Z,4.52
2023-03-06T07:43:41.731Z,4.53
2023-03-06T07:46:09.347Z,4.59
2023-03-06T07:48:37.718Z,4.61
2023-03-06T07:51:07.197Z,4.61
2023-03-06T07:53:34.961Z,4.78
2023-03-06T07:56:08.570Z,4.93
2023-03-06T07:58:36.700Z,4.95
2023-03-06T08:01:10.313Z,5.10
2023-03-06T08:03:37.676Z,5.24
2023-03-06T08:06:08.949Z,5.27
2023-03-06T08:08:37.252Z,5.43
2023-03-06T08:11:04.114Z,5.45
2023-03-06T08:13:30.994Z,5.39
2023-03-06T08:15:57.845Z,5.34
2023-03-06T08:18:24.619Z,5.51
2023-03-06T08:21:00.532Z,5.65
2023-03-06T08:23:27.264Z,5.74
2023-03-06T08:25:59.489Z,5.89
2023-03-06T08:28:26.485Z,5.97
2023-03-06T08:30:53.648Z,5.93
2023-03-06T08:33:20.688Z,5.95
2023-03-06T08:35:47.509Z,5.93
2023-03-06T08:38:14.762Z,5.97
2023-03-06T08:40:41.536Z,6.04
2023-03-06T08:43:13.995Z,6.13
2023-03-06T08:45:41.270Z,6.29
2023-03-06T08:48:08.177Z,6.39
2023-03-06T08:50:35.158Z,6.41
2023-03-06T08:53:01.946Z,6.59
2023-03-06T08:55:28.712Z,6.61
2023-03-06T08:57:55.437Z,6.76
2023-03-06T09:00:22.430Z,6.78
2023-03-06T09:02:49.281Z,6.67
2023-03-06T09:05:16.055Z,6.70
2023-03-06T09:07:42.989Z,6.67
2023-03-06T09:10:15.476Z,6.88
2023-03-06T09:12:52.488Z,6.95
2023-03-06T09:15:22.333Z,7.12
2023-03-06T09:17:49.290Z,7.06
2023-03-06T09:20:17.324Z,7.04
2023-03-06T09:22:45.598Z,7.28
2023-03-06T09:25:14.300Z,7.26
2023-03-06T09:27:41.292Z,7.35
2023-03-06T09:30:09.182Z,7.32
2023-03-06T09:32:36.036Z,7.30
2023-03-06T09:35:02.882Z,7.39
2023-03-06T09:37:29.842Z,7.35
2023-03-06T09:39:57.820Z,7.43
2023-03-06T09:42:25.183Z,7.36
2023-03-06T09:44:55.633Z,7.45
2023-03-06T09:47:38.354Z,7.58
2023-03-06T09:50:27.195Z,7.63
2023-03-06T09:53:15.192Z,7.71
2023-03-06T09:55:46.114Z,7.73
2023-03-06T09:58:30.907Z,7.79
2023-03-06T10:01:03.787Z,7.81
2023-03-06T10:03:47.484Z,8.31
2023-03-06T10:06:26.507Z,8.36
2023-03-06T10:09:01.463Z,8.37
2023-03-06T10:11:35.906Z,8.54
2023-03-06T10:14:24.651Z,8.55
2023-03-06T10:16:51.686Z,8.50
2023-03-06T10:19:20.953Z,8.44
2023-03-06T10:22:06.104Z,8.44
2023-03-06T10:25:00.372Z,8.62
2023-03-06T10:27:48.335Z,8.63
2023-03-06T10:30:33.935Z,8.50
2023-03-06T10:33:25.921Z,8.53
2023-03-06T10:35:55.961Z,8.30
2023-03-06T10:38:37.539Z,8.06
2023-03-06T10:41:13.532Z,7.72
2023-03-06T10:44:03.817Z,7.37
2023-03-06T10:46:37.871Z,7.24
2023-03-06T10:49:22.722Z,7.15
2023-03-06T10:51:57.504Z,7.10
2023-03-06T10:54:24.563Z,6.82
2023-03-06T10:56:51.381Z,6.92
2023-03-06T10:59:23.033Z,6.98
2023-03-06T11:01:52.862Z,7.15
2023-03-06T11:04:31.993Z,7.14
2023-03-06T11:07:27.287Z,7.09
2023-03-06T11:09:57.119Z,7.06
2023-03-06T11:12:32.929Z,7.21
2023-03-06T11:15:23.674Z,7.54
2023-03-06T11:18:36.450Z,7.73
2023-03-06T11:21:07.436Z,7.61
2023-03-06T11:23:42.854Z,7.33
2023-03-06T11:26:15.669Z,7.43
2023-03-06T11:28:45.062Z,7.38
2023-03-06T11:31:24.104Z,7.24
2023-03-06T11:33:56.782Z,7.53
2023-03-06T11:36:40.122Z,7.55
2023-03-06T11:39:28.019Z,7.52
2023-03-06T11:42:13.410Z,7.52
2023-03-06T11:45:03.063Z,7.58
2023-03-06T11:47:36.629Z,7.75
2023-03-06T11:50:35.736Z,7.85
2023-03-06T11:53:05.653Z,7.64
2023-03-06T11:55:50.991Z,7.83
2023-03-06T11:58:23.922Z,7.92
2023-03-06T12:01:09.373Z,7.92
2023-03-06T12:04:03.975Z,7.89
2023-03-06T12:06:51.132Z,7.98
2023-03-06T12:09:55.507Z,7.83
2023-03-06T12:12:34.111Z,7.77
2023-03-06T12:15:22.649Z,7.67
2023-03-06T12:18:13.279Z,7.55
2023-03-06T12:21:07.245Z,7.50
2023-03-06T12:23:43.010Z,7.50
2023-03-06T12:26:15.909Z,7.46
2023-03-06T12:28:50.353Z,7.46
2023-03-06T12:31:33.998Z,7.39
2023-03-06T12:34:07.925Z,7.37
2023-03-06T12:37:00.767Z,7.41
2023-03-06T12:40:06.977Z,7.43
2023-03-06T12:42:59.353Z,7.39
2023-03-06T12:45:37.113Z,7.38
2023-03-06T12:48:14.985Z,7.31
2023-03-06T12:50:44.572Z,7.22
2023-03-06T12:53:22.766Z,7.29
2023-03-06T12:55:51.361Z,7.34
2023-03-06T12:58:57.255Z,7.41
2023-03-06T13:02:12.044Z,7.46
2023-03-06T13:04:45.607Z,7.46
2023-03-06T13:07:15.421Z,7.45
2023-03-06T13:10:05.749Z,7.44
2023-03-06T13:12:55.811Z,7.36
2023-03-06T13:15:29.290Z,7.30
2023-03-06T13:17:56.928Z,7.35
2023-03-06T13:20:30.071Z,7.15
2023-03-06T13:22:57.261Z,7.28
2023-03-06T13:25:23.929Z,7.24
2023-03-06T13:28:03.350Z,7.03
2023-03-06T13:30:39.917Z,7.12
2023-03-06T13:33:30.104Z,7.07
2023-03-06T13:35:58.284Z,6.94
2023-03-06T13:38:53.112Z,6.92
2023-03-06T13:41:22.990Z,6.88
2023-03-06T13:43:55.671Z,6.86
2023-03-06T13:46:27.897Z,6.94
2023-03-06T13:49:13.106Z,7.04
2023-03-06T13:52:18.292Z,7.00
2023-03-06T13:54:54.032Z,7.01
2023-03-06T13:57:54.500Z,6.94
2023-03-06T14:00:59.157Z,6.88
2023-03-06T14:03:51.293Z,6.87
2023-03-06T14:06:37.330Z,6.90
2023-03-06T14:09:08.315Z,6.86
2023-03-06T14:11:36.383Z,6.94
2023-03-06T14:14:03.842Z,6.94
2023-03-06T14:16:49.495Z,6.84
2023-03-06T14:19:19.246Z,6.80
2023-03-06T14:21:51.205Z,6.93
2023-03-06T14:24:20.163Z,6.84
2023-03-06T14:26:51.385Z,6.90
2023-03-06T14:29:23.400Z,6.82
2023-03-06T14:31:52.965Z,6.93
2023-03-06T14:34:26.898Z,7.04
2023-03-06T14:36:55.965Z,6.98
2023-03-06T14:39:41.823Z,6.94
2023-03-06T14:42:15.507Z,6.80
2023-03-06T14:44:42.858Z,6.91
2023-03-06T14:47:28.794Z,6.90
2023-03-06T14:50:33.617Z,6.93
2023-03-06T14:53:25.457Z,6.93
2023-03-06T14:55:58.012Z,6.93
2023-03-06T14:58:38.869Z,6.93
2023-03-06T15:01:08.997Z,6.81
2023-03-06T15:03:44.447Z,6.93
2023-03-06T15:06:20.097Z,6.89
2023-03-06T15:08:52.953Z,6.89
2023-03-06T15:11:19.763Z,6.88
2023-03-06T15:14:00.799Z,6.84
2023-03-06T15:16:30.171Z,6.81
2023-03-06T15:19:00.573Z,6.81
2023-03-06T15:21:36.303Z,6.73
2023-03-06T15:24:31.648Z,6.76
2023-03-06T15:27:03.492Z,6.73
2023-03-06T15:29:30.657Z,6.63
2023-03-06T15:32:33.574Z,6.65
2023-03-06T15:35:25.547Z,6.61
2023-03-06T15:37:53.057Z,6.59
2023-03-06T15:40:22.347Z,6.49
2023-03-06T15:42:52.358Z,6.54
2023-03-06T15:45:20.732Z,6.52
2023-03-06T15:47:49.199Z,6.49
2023-03-06T15:50:21.372Z,6.46
2023-03-06T15:52:49.359Z,6.36
2023-03-06T15:55:18.395Z,6.42
2023-03-06T15:57:51.726Z,6.33
2023-03-06T16:00:28.691Z,6.34
2023-03-06T16:02:58.951Z,6.41
2023-03-06T16:05:27.481Z,6.28
2023-03-06T16:07:55.136Z,6.39
2023-03-06T16:10:24.302Z,6.39
2023-03-06T16:12:54.537Z,6.32
2023-03-06T16:15:25.384Z,6.35
2023-03-06T16:17:52.300Z,6.30
2023-03-06T16:20:21.555Z,6.21
2023-03-06T16:22:53.837Z,6.28
2023-03-06T16:25:22.686Z,6.25
2023-03-06T16:27:58.120Z,6.23
2023-03-06T16:30:35.540Z,6.23
2023-03-06T16:33:03.537Z,6.21
2023-03-06T16:35:30.463Z,6.20
2023-03-06T16:37:58.685Z,5.99
2023-03-06T16:40:32.607Z,6.07
2023-03-06T16:42:59.639Z,6.19
2023-03-06T16:45:26.583Z,6.20
2023-03-06T16:47:54.377Z,6.06
2023-03-06T16:50:30.156Z,6.02
2023-03-06T16:52:58.275Z,6.12
2023-03-06T16:55:26.892Z,6.08
2023-03-06T16:57:54.776Z,6.06
2023-03-06T17:00:24.623Z,6.04
2023-03-06T17:02:52.373Z,6.02
2023-03-06T17:05:19.968Z,5.90
2023-03-06T17:07:47.543Z,6.00
2023-03-06T17:10:16.263Z,5.86
2023-03-06T17:12:43.699Z,5.98
2023-03-06T17:15:11.642Z,5.98
2023-03-06T17:17:38.478Z,5.98
2023-03-06T17:20:11.877Z,5.98
2023-03-06T17:22:39.428Z,5.97
2023-03-06T17:25:07.636Z,6.00
2023-03-06T17:27:35.477Z,5.85
2023-03-06T17:30:02.659Z,5.88
2023-03-06T17:32:29.482Z,5.93
2023-03-06T17:34:56.638Z,5.92
2023-03-06T17:37:23.464Z,5.82
2023-03-06T17:39:50.203Z,5.91
2023-03-06T17:42:17.215Z,5.88
2023-03-06T17:44:43.948Z,5.79
2023-03-06T17:47:10.879Z,5.86
2023-03-06T17:49:37.804Z,5.72
2023-03-06T17:52:05.752Z,5.90
2023-03-06T17:54:33.379Z,5.76
2023-03-06T17:57:03.421Z,5.80
2023-03-06T17:59:33.966Z,5.79
2023-03-06T18:02:01.884Z,5.78
2023-03-06T18:04:29.082Z,5.85
2023-03-06T18:06:57.126Z,5.86
2023-03-06T18:09:24.884Z,5.77
2023-03-06T18:11:51.696Z,5.74
2023-03-06T18:14:18.491Z,5.74
2023-03-06T18:16:45.376Z,5.73
2023-03-06T18:19:12.260Z,5.65
2023-03-06T18:21:40.110Z,5.51
2023-03-06T18:24:07.464Z,5.54
2023-03-06T18:26:34.198Z,5.52
2023-03-06T18:29:04.464Z,5.49
2023-03-06T18:31:40.222Z,5.52
2023-03-06T18:34:10.289Z,5.52
2023-03-06T18:36:37.418Z,5.58
2023-03-06T18:39:08.703Z,5.43
2023-03-06T18:41:36.229Z,5.51
2023-03-06T18:44:03.121Z,5.46
2023-03-06T18:46:32.541Z,5.45
2023-03-06T18:48:59.858Z,5.46
2023-03-06T18:51:27.463Z,5.28
2023-03-06T18:53:57.581Z,5.25
2023-03-06T18:56:24.838Z,5.35
2023-03-06T18:58:52.117Z,5.32
2023-03-06T19:01:19.090Z,5.33
2023-03-06T19:03:46.376Z,5.29
2023-03-06T19:06:14.889Z,5.15
2023-03-06T19:08:41.916Z,5.24
2023-03-06T19:11:11.854Z,5.31
2023-03-06T19:13:39.111Z,5.31
2023-03-06T19:16:06.691Z,5.31
2023-03-06T19:18:34.058Z,5.29
2023-03-06T19:21:14.348Z,5.32
2023-03-06T19:23:41.830Z,5.27
2023-03-06T19:26:09.480Z,5.27
2023-03-06T19:28:38.488Z,5.31
2023-03-06T19:31:19.618Z,5.27
2023-03-06T19:33:48.305Z,5.29
2023-03-06T19:36:16.910Z,5.30
2023-03-06T19:38:43.731Z,5.30
2023-03-06T19:41:13.487Z,5.33
2023-03-06T19:43:41.796Z,5.31
2023-03-06T19:46:15.119Z,5.24
2023-03-06T19:48:42.654Z,5.26
2023-03-06T19:51:10.503Z,5.29
2023-03-06T19:53:37.848Z,5.37
2023-03-06T19:56:06.912Z,5.36
2023-03-06T19:58:33.983Z,5.32
2023-03-06T20:01:10.376Z,5.28
2023-03-06T20:03:37.222Z,5.33
2023-03-06T20:06:08.930Z,5.34
2023-03-06T20:08:36.507Z,5.25
2023-03-06T20:11:04.116Z,5.39
2023-03-06T20:13:31.586Z,5.51
2023-03-06T20:16:02.914Z,5.48
2023-03-06T20:18:29.719Z,5.45
2023-03-06T20:21:04.621Z,5.42
2023-03-06T20:23:32.094Z,5.44
2023-03-06T20:26:09.548Z,5.35
2023-03-06T20:28:39.111Z,5.29
2023-03-06T20:31:11.217Z,5.26
2023-03-06T20:33:38.120Z,5.22
2023-03-06T20:36:11.585Z,5.19
2023-03-06T20:38:39.092Z,5.21
2023-03-06T20:41:05.759Z,5.04
2023-03-06T20:43:32.492Z,5.12
2023-03-06T20:46:02.566Z,5.16
2023-03-06T20:48:29.756Z,5.11
2023-03-06T20:51:21.022Z,5.12
2023-03-06T20:53:49.233Z,5.07
2023-03-06T20:56:19.336Z,5.11
2023-03-06T20:58:46.215Z,4.99
2023-03-06T21:01:20.946Z,5.12
2023-03-06T21:03:48.464Z,5.12
2023-03-06T21:06:15.800Z,4.91
2023-03-06T21:08:43.370Z,5.12
2023-03-06T21:11:10.132Z,5.09
2023-03-06T21:13:37.032Z,5.08
2023-03-06T21:16:09.821Z,5.06
2023-03-06T21:18:36.939Z,5.03
2023-03-06T21:21:09.154Z,4.96
2023-03-06T21:23:36.829Z,5.06
2023-03-06T21:26:03.822Z,5.00
2023-03-06T21:28:30.954Z,4.91
2023-03-06T21:31:00.682Z,4.96
2023-03-06T21:33:27.839Z,4.97
2023-03-06T21:35:54.789Z,4.89
2023-03-06T21:38:21.590Z,5.01
2023-03-06T21:40:48.322Z,5.01
2023-03-06T21:43:17.467Z,4.92
2023-03-06T21:45:48.655Z,5.05
2023-03-06T21:48:15.877Z,5.06
2023-03-06T21:50:42.619Z,5.09
2023-03-06T21:53:09.761Z,5.11
2023-03-06T21:55:40.897Z,5.10
2023-03-06T21:58:07.686Z,5.01
2023-03-06T22:00:36.489Z,4.98
2023-03-06T22:03:04.871Z,5.11
2023-03-06T22:05:32.085Z,5.12
2023-03-06T22:07:59.269Z,5.10
2023-03-06T22:10:26.038Z,5.17
2023-03-06T22:12:52.825Z,5.04
2023-03-06T22:15:21.847Z,5.07
2023-03-06T22:17:48.873Z,5.16
2023-03-06T22:20:16.039Z,5.17
2023-03-06T22:22:43.709Z,5.07
2023-03-06T22:25:11.898Z,5.13
2023-03-06T22:27:39.012Z,5.09
2023-03-06T22:30:06.359Z,5.10
2023-03-06T22:32:33.373Z,5.12
2023-03-06T22:35:00.156Z,5.10
2023-03-06T22:37:26.869Z,5.04
2023-03-06T22:39:53.618Z,5.03
2023-03-06T22:42:20.359Z,5.05
2023-03-06T22:44:47.206Z,4.86
2023-03-06T22:47:14.033Z,4.96
2023-03-06T22:49:40.774Z,4.94
2023-03-06T22:52:07.466Z,4.92
2023-03-06T22:54:34.362Z,4.95
2023-03-06T22:57:01.090Z,4.84
2023-03-06T22:59:27.835Z,4.88
2023-03-06T23:01:54.582Z,4.90
2023-03-06T23:04:21.382Z,4.79
2023-03-06T23:06:48.244Z,4.85
2023-03-06T23:09:23.395Z,4.89
2023-03-06T23:12:11.556Z,4.90
2023-03-06T23:14:57.064Z,4.82
2023-03-06T23:17:42.311Z,4.89
2023-03-06T23:20:28.437Z,4.89
2023-03-06T23:23:13.965Z,4.82
2023-03-06T23:25:40.730Z,4.79
2023-03-06T23:28:07.702Z,4.67
2023-03-06T23:30:34.813Z,4.81
2023-03-06T23:33:01.515Z,4.84
2023-03-06T23:35:28.391Z,4.84
2023-03-06T23:37:55.310Z,4.70
2023-03-06T23:40:22.340Z,4.83
2023-03-06T23:42:49.401Z,4.73
2023-03-06T23:45:16.760Z,4.73
2023-03-06T23:47:43.521Z,4.82
2023-03-06T23:50:13.502Z,4.81
2023-03-06T23:52:40.693Z,4.78
2023-03-06T23:55:07.843Z,4.82
2023-03-06T23:57:34.796Z,4.81
